createdAt,value
2022-10-18T00:01:02.452Z,4.60
2022-10-18T00:03:28.842Z,4.43
2022-10-18T00:05:55.217Z,4.68
2022-10-18T00:08:21.570Z,4.74
2022-10-18T00:10:47.942Z,4.53
2022-10-18T00:13:14.295Z,4.38
2022-10-18T00:15:40.640Z,4.62
2022-10-18T00:18:06.991Z,4.36
2022-10-18T00:20:33.418Z,4.21
2022-10-18T00:22:59.762Z,4.13
2022-10-18T00:25:26.100Z,4.31
2022-10-18T00:27:52.445Z,4.22
2022-10-18T00:30:18.808Z,4.21
2022-10-18T00:32:45.158Z,4.15
2022-10-18T00:35:11.496Z,4.06
2022-10-18T00:37:37.849Z,4.33
2022-10-18T00:40:04.213Z,4.31
2022-10-18T00:42:30.740Z,4.49
2022-10-18T00:44:57.579Z,4.75
2022-10-18T00:47:23.983Z,4.75
2022-10-18T00:49:50.336Z,5.07
2022-10-18T00:52:16.694Z,5.32
2022-10-18T00:54:43.060Z,4.80
2022-10-18T00:57:09.418Z,4.89
2022-10-18T00:59:35.782Z,5.08
2022-10-18T01:02:02.195Z,5.39
2022-10-18T01:04:28.588Z,5.32
2022-10-18T01:06:54.942Z,5.04
2022-10-18T01:09:21.293Z,4.77
2022-10-18T01:11:47.662Z,4.61
2022-10-18T01:14:14.073Z,4.60
2022-10-18T01:16:40.445Z,4.57
2022-10-18T01:19:06.805Z,4.61
2022-10-18T01:21:33.190Z,4.37
2022-10-18T01:23:59.541Z,4.59
2022-10-18T01:26:25.892Z,4.74
2022-10-18T01:28:52.304Z,4.71
2022-10-18T01:31:18.712Z,4.87
2022-10-18T01:33:45.086Z,4.89
2022-10-18T01:36:11.435Z,4.64
2022-10-18T01:38:37.783Z,4.65
2022-10-18T01:41:04.139Z,4.90
2022-10-18T01:43:30.500Z,4.78
2022-10-18T01:45:56.835Z,4.74
2022-10-18T01:48:23.203Z,4.79
2022-10-18T01:50:49.557Z,4.85
2022-10-18T01:53:15.927Z,5.12
2022-10-18T01:55:42.281Z,5.03
2022-10-18T01:58:08.640Z,4.77
2022-10-18T02:00:34.977Z,5.39
2022-10-18T02:03:01.347Z,5.06
2022-10-18T02:05:27.685Z,5.00
2022-10-18T02:08:05.636Z,5.15
2022-10-18T02:10:40.356Z,5.06
2022-10-18T02:13:06.712Z,4.71
2022-10-18T02:15:33.070Z,4.88
2022-10-18T02:17:59.408Z,5.02
2022-10-18T02:20:25.778Z,5.00
2022-10-18T02:22:52.130Z,5.04
2022-10-18T02:25:18.479Z,5.08
2022-10-18T02:27:44.822Z,5.38
2022-10-18T02:30:11.168Z,5.42
2022-10-18T02:32:37.534Z,5.27
2022-10-18T02:35:03.885Z,5.22
2022-10-18T02:37:30.262Z,5.35
2022-10-18T02:39:56.654Z,5.07
2022-10-18T02:42:23.010Z,5.18
2022-10-18T02:44:49.384Z,5.64
2022-10-18T02:47:15.733Z,5.47
2022-10-18T02:49:42.101Z,5.57
2022-10-18T02:52:08.478Z,5.54
2022-10-18T02:54:34.832Z,5.19
2022-10-18T02:57:01.219Z,5.03
2022-10-18T02:59:27.562Z,5.12
2022-10-18T03:01:54.046Z,5.25
2022-10-18T03:04:20.434Z,5.22
2022-10-18T03:06:46.821Z,4.98
2022-10-18T03:09:13.162Z,5.15
2022-10-18T03:11:39.533Z,5.20
2022-10-18T03:14:05.883Z,4.79
2022-10-18T03:16:32.238Z,5.03
2022-10-18T03:18:58.601Z,4.93
2022-10-18T03:21:24.957Z,4.87
2022-10-18T03:23:51.314Z,5.00
2022-10-18T03:26:17.675Z,4.95
2022-10-18T03:28:44.083Z,5.17
2022-10-18T03:31:10.535Z,5.02
2022-10-18T03:33:36.887Z,5.05
2022-10-18T03:36:03.252Z,4.82
2022-10-18T03:38:29.603Z,4.71
2022-10-18T03:40:55.960Z,4.88
2022-10-18T03:43:22.363Z,4.92
2022-10-18T03:45:48.713Z,5.13
2022-10-18T03:48:15.075Z,4.65
2022-10-18T03:50:41.491Z,4.94
2022-10-18T03:53:07.845Z,4.91
2022-10-18T03:55:34.204Z,5.29
2022-10-18T03:58:00.572Z,4.97
2022-10-18T04:00:26.942Z,4.67
2022-10-18T04:02:55.136Z,4.82
2022-10-18T04:05:22.401Z,4.67
2022-10-18T04:07:48.771Z,4.93
2022-10-18T04:10:15.132Z,4.93
2022-10-18T04:12:41.487Z,5.26
2022-10-18T04:15:07.851Z,5.19
2022-10-18T04:17:34.493Z,5.03
2022-10-18T04:20:01.160Z,5.21
2022-10-18T04:22:27.533Z,5.13
2022-10-18T04:24:53.885Z,5.16
2022-10-18T04:27:20.264Z,5.47
2022-10-18T04:29:46.623Z,5.45
2022-10-18T04:32:13.035Z,5.46
2022-10-18T04:34:39.411Z,5.50
2022-10-18T04:37:05.795Z,5.47
2022-10-18T04:39:32.158Z,5.80
2022-10-18T04:41:58.499Z,5.80
2022-10-18T04:44:24.861Z,6.14
2022-10-18T04:46:51.213Z,5.86
2022-10-18T04:49:17.601Z,5.85
2022-10-18T04:51:43.962Z,5.58
2022-10-18T04:54:10.314Z,5.48
2022-10-18T04:56:36.663Z,5.45
2022-10-18T04:59:03.017Z,5.58
2022-10-18T05:01:29.390Z,5.78
2022-10-18T05:03:55.789Z,5.76
2022-10-18T05:06:22.155Z,5.71
2022-10-18T05:08:48.492Z,5.81
2022-10-18T05:11:14.899Z,5.86
2022-10-18T05:13:41.242Z,6.06
2022-10-18T05:16:07.701Z,5.83
2022-10-18T05:18:34.182Z,5.86
2022-10-18T05:21:00.519Z,5.64
2022-10-18T05:23:26.895Z,5.76
2022-10-18T05:25:53.256Z,5.63
2022-10-18T05:28:39.576Z,5.73
2022-10-18T05:31:06.009Z,5.93
2022-10-18T05:33:32.379Z,5.96
2022-10-18T05:35:58.748Z,5.88
2022-10-18T05:38:25.145Z,5.77
2022-10-18T05:40:51.543Z,5.68
2022-10-18T05:43:17.889Z,5.77
2022-10-18T05:45:44.267Z,5.55
2022-10-18T05:48:10.621Z,6.81
2022-10-18T05:50:39.608Z,5.56
2022-10-18T05:53:12.759Z,5.17
2022-10-18T05:55:51.019Z,5.23
2022-10-18T05:58:17.370Z,5.58
2022-10-18T06:00:43.721Z,5.49
2022-10-18T06:03:10.105Z,5.64
2022-10-18T06:05:36.529Z,5.79
2022-10-18T06:08:05.270Z,6.50
2022-10-18T06:10:34.320Z,5.80
2022-10-18T06:13:00.673Z,5.95
2022-10-18T06:15:27.014Z,5.84
2022-10-18T06:17:53.367Z,5.85
2022-10-18T06:20:19.731Z,5.47
2022-10-18T06:22:46.085Z,6.14
2022-10-18T06:25:12.432Z,5.83
2022-10-18T06:27:38.771Z,6.08
2022-10-18T06:30:05.182Z,5.91
2022-10-18T06:32:31.529Z,5.95
2022-10-18T06:34:57.877Z,6.22
2022-10-18T06:37:24.238Z,6.24
2022-10-18T06:39:50.609Z,6.18
2022-10-18T06:42:19.131Z,6.17
2022-10-18T06:44:48.209Z,6.55
2022-10-18T06:47:14.560Z,6.20
2022-10-18T06:49:40.917Z,6.50
2022-10-18T06:52:07.301Z,6.47
2022-10-18T06:54:33.649Z,6.51
2022-10-18T06:56:59.996Z,5.92
2022-10-18T06:59:28.900Z,5.73
2022-10-18T07:01:57.591Z,5.65
2022-10-18T07:04:23.983Z,5.52
2022-10-18T07:06:50.335Z,5.36
2022-10-18T07:09:16.697Z,5.38
2022-10-18T07:11:43.071Z,5.69
2022-10-18T07:14:12.555Z,5.96
2022-10-18T07:16:41.769Z,6.32
2022-10-18T07:19:08.167Z,5.34
2022-10-18T07:21:34.512Z,6.99
2022-10-18T07:24:00.891Z,7.41
2022-10-18T07:26:27.289Z,7.26
2022-10-18T07:28:53.739Z,6.93
2022-10-18T07:31:20.157Z,7.14
2022-10-18T07:33:46.552Z,6.78
2022-10-18T07:36:12.919Z,6.63
2022-10-18T07:38:39.261Z,6.47
2022-10-18T07:41:05.621Z,6.30
2022-10-18T07:43:31.970Z,6.21
2022-10-18T07:45:58.323Z,6.21
2022-10-18T07:48:24.675Z,6.84
2022-10-18T07:50:51.035Z,6.86
2022-10-18T07:53:17.391Z,7.11
2022-10-18T07:55:43.765Z,6.87
2022-10-18T07:58:10.148Z,6.77
2022-10-18T08:00:36.527Z,6.28
2022-10-18T08:03:02.889Z,6.69
2022-10-18T08:05:29.278Z,6.60
2022-10-18T08:07:55.656Z,6.52
2022-10-18T08:10:21.995Z,6.45
2022-10-18T08:12:48.368Z,6.97
2022-10-18T08:15:14.718Z,6.42
2022-10-18T08:17:41.079Z,6.83
2022-10-18T08:20:12.422Z,6.87
2022-10-18T08:22:45.498Z,7.30
2022-10-18T08:25:11.875Z,6.74
2022-10-18T08:27:38.278Z,7.13
2022-10-18T08:30:04.638Z,7.63
2022-10-18T08:32:31.302Z,7.66
2022-10-18T08:34:57.789Z,6.98
2022-10-18T08:37:24.153Z,7.03
2022-10-18T08:39:50.517Z,6.54
2022-10-18T08:42:16.860Z,6.47
2022-10-18T08:44:43.219Z,6.79
2022-10-18T08:47:09.577Z,6.92
2022-10-18T08:49:35.937Z,6.68
2022-10-18T08:52:02.269Z,6.19
2022-10-18T08:54:28.629Z,5.66
2022-10-18T08:56:54.968Z,6.12
2022-10-18T08:59:24.719Z,6.87
2022-10-18T09:01:52.019Z,6.09
2022-10-18T09:04:18.562Z,6.95
2022-10-18T09:06:44.958Z,7.26
2022-10-18T09:09:11.303Z,6.45
2022-10-18T09:11:37.682Z,6.29
2022-10-18T09:14:04.040Z,6.27
2022-10-18T09:16:30.408Z,6.15
2022-10-18T09:18:56.767Z,6.05
2022-10-18T09:21:23.137Z,5.77
2022-10-18T09:23:49.489Z,5.76
2022-10-18T09:26:15.840Z,5.99
2022-10-18T09:28:42.222Z,6.05
2022-10-18T09:31:08.575Z,6.07
2022-10-18T09:33:34.911Z,7.16
2022-10-18T09:36:01.274Z,6.58
2022-10-18T09:38:27.635Z,6.13
2022-10-18T09:40:53.993Z,5.85
2022-10-18T09:43:20.388Z,6.01
2022-10-18T09:45:46.728Z,5.88
2022-10-18T09:48:13.109Z,5.95
2022-10-18T09:50:39.452Z,5.69
2022-10-18T09:53:05.819Z,5.74
2022-10-18T09:55:32.156Z,6.13
2022-10-18T09:57:58.695Z,5.88
2022-10-18T10:00:25.079Z,5.60
2022-10-18T10:02:51.488Z,5.90
2022-10-18T10:05:17.891Z,5.42
2022-10-18T10:07:44.276Z,5.53
2022-10-18T10:10:10.650Z,5.55
2022-10-18T10:12:37.002Z,6.23
2022-10-18T10:15:03.365Z,5.78
2022-10-18T10:17:30.144Z,8.37
2022-10-18T10:19:56.842Z,5.73
2022-10-18T10:22:23.192Z,5.45
2022-10-18T10:24:49.553Z,5.51
2022-10-18T10:27:15.917Z,5.58
2022-10-18T10:29:44.884Z,5.56
2022-10-18T10:32:11.467Z,5.68
2022-10-18T10:34:40.961Z,5.57
2022-10-18T10:37:10.231Z,5.28
2022-10-18T10:39:36.576Z,5.28
2022-10-18T10:42:04.930Z,5.44
2022-10-18T10:44:33.219Z,5.24
2022-10-18T10:46:59.593Z,5.32
2022-10-18T10:49:41.510Z,4.76
2022-10-18T10:52:08.778Z,5.10
2022-10-18T10:54:35.528Z,5.27
2022-10-18T10:57:01.884Z,5.27
2022-10-18T10:59:28.298Z,5.52
2022-10-18T11:01:54.717Z,5.28
2022-10-18T11:04:21.142Z,5.17
2022-10-18T11:06:47.585Z,5.24
2022-10-18T11:09:13.945Z,5.37
2022-10-18T11:11:40.301Z,5.07
2022-10-18T11:14:24.643Z,4.91
2022-10-18T11:16:51.938Z,4.81
2022-10-18T11:19:18.365Z,4.61
2022-10-18T11:21:44.738Z,4.15
2022-10-18T11:24:11.089Z,4.43
2022-10-18T11:26:40.945Z,4.77
2022-10-18T11:29:09.149Z,4.38
2022-10-18T11:31:35.501Z,4.46
2022-10-18T11:34:09.251Z,4.20
2022-10-18T11:36:36.823Z,3.64
2022-10-18T11:39:03.319Z,3.84
2022-10-18T11:41:29.687Z,4.12
2022-10-18T11:44:03.813Z,3.92
2022-10-18T11:46:30.420Z,3.62
2022-10-18T11:48:56.766Z,3.85
2022-10-18T11:51:29.771Z,4.20
2022-10-18T11:54:05.128Z,3.80
2022-10-18T11:56:31.479Z,3.93
2022-10-18T11:58:57.872Z,3.92
2022-10-18T12:01:27.670Z,3.98
2022-10-18T12:03:55.020Z,4.07
2022-10-18T12:06:21.385Z,3.91
2022-10-18T12:08:47.741Z,4.74
2022-10-18T12:11:14.086Z,4.25
2022-10-18T12:13:40.451Z,3.49
2022-10-18T12:16:06.807Z,3.26
2022-10-18T12:18:33.177Z,3.57
2022-10-18T12:20:59.514Z,3.58
2022-10-18T12:23:25.914Z,3.57
2022-10-18T12:25:52.265Z,3.42
2022-10-18T12:28:18.615Z,3.36
2022-10-18T12:30:44.963Z,3.25
2022-10-18T12:33:27.115Z,3.16
2022-10-18T12:35:54.852Z,3.45
2022-10-18T12:38:21.215Z,3.19
2022-10-18T12:40:47.568Z,3.06
2022-10-18T12:43:13.926Z,3.35
2022-10-18T12:45:40.279Z,2.94
2022-10-18T12:48:06.637Z,3.15
2022-10-18T12:50:32.996Z,3.34
2022-10-18T12:52:59.336Z,3.59
2022-10-18T12:55:25.683Z,3.51
2022-10-18T12:57:52.026Z,3.26
2022-10-18T13:00:18.389Z,3.58
2022-10-18T13:02:44.747Z,3.93
2022-10-18T13:05:21.147Z,3.99
2022-10-18T13:07:57.478Z,3.81
2022-10-18T13:10:23.829Z,3.84
2022-10-18T13:12:50.179Z,4.15
2022-10-18T13:15:25.258Z,3.36
2022-10-18T13:17:53.384Z,3.16
2022-10-18T13:20:27.731Z,3.49
2022-10-18T13:22:54.293Z,3.57
2022-10-18T13:25:20.684Z,3.32
2022-10-18T13:27:47.359Z,3.38
2022-10-18T13:30:13.935Z,3.80
2022-10-18T13:32:40.295Z,3.66
2022-10-18T13:35:06.654Z,3.29
2022-10-18T13:37:33.008Z,3.47
2022-10-18T13:39:59.344Z,3.76
2022-10-18T13:42:25.696Z,3.72
2022-10-18T13:44:52.046Z,3.59
2022-10-18T13:47:18.408Z,3.91
2022-10-18T13:49:44.786Z,3.54
2022-10-18T13:52:11.141Z,3.42
2022-10-18T13:54:37.495Z,3.55
2022-10-18T13:57:03.855Z,3.15
2022-10-18T13:59:30.241Z,3.18
2022-10-18T14:01:56.672Z,3.08
2022-10-18T14:04:23.081Z,3.45
2022-10-18T14:06:49.432Z,3.45
2022-10-18T14:09:25.493Z,5.71
2022-10-18T14:12:02.126Z,3.08
2022-10-18T14:14:28.467Z,3.02
2022-10-18T14:16:54.834Z,2.95
2022-10-18T14:19:21.276Z,3.05
2022-10-18T14:21:47.629Z,2.87
2022-10-18T14:24:13.982Z,2.79
2022-10-18T14:26:40.354Z,3.00
2022-10-18T14:29:06.789Z,3.04
2022-10-18T14:31:33.296Z,2.80
2022-10-18T14:33:59.644Z,3.22
2022-10-18T14:36:26.009Z,3.22
2022-10-18T14:38:52.358Z,3.02
2022-10-18T14:41:18.698Z,3.10
2022-10-18T14:43:45.079Z,3.24
2022-10-18T14:46:11.436Z,3.45
2022-10-18T14:48:37.800Z,3.40
2022-10-18T14:51:04.158Z,3.95
2022-10-18T14:53:30.561Z,4.09
2022-10-18T14:55:56.924Z,4.26
2022-10-18T14:58:23.261Z,3.95
2022-10-18T15:00:49.623Z,3.66
2022-10-18T15:03:16.131Z,3.98
2022-10-18T15:05:42.488Z,3.92
2022-10-18T15:08:08.844Z,3.85
2022-10-18T15:10:35.221Z,3.79
2022-10-18T15:13:10.233Z,3.65
2022-10-18T15:15:37.137Z,3.55
2022-10-18T15:18:03.502Z,3.59
2022-10-18T15:20:29.866Z,3.33
2022-10-18T15:22:56.276Z,3.27
2022-10-18T15:25:22.619Z,3.66
2022-10-18T15:27:48.979Z,3.49
2022-10-18T15:30:15.340Z,4.14
2022-10-18T15:32:41.703Z,3.65
2022-10-18T15:35:08.054Z,3.69
2022-10-18T15:37:34.897Z,3.29
2022-10-18T15:40:01.617Z,3.38
2022-10-18T15:42:27.965Z,2.98
2022-10-18T15:44:54.582Z,2.88
2022-10-18T15:47:20.971Z,2.82
2022-10-18T15:49:47.355Z,3.11
2022-10-18T15:52:13.711Z,3.09
2022-10-18T15:54:40.154Z,2.87
2022-10-18T15:57:06.540Z,3.02
2022-10-18T15:59:32.909Z,3.04
2022-10-18T16:01:59.341Z,2.79
2022-10-18T16:04:25.723Z,3.21
2022-10-18T16:06:52.063Z,3.27
2022-10-18T16:09:18.414Z,3.18
2022-10-18T16:11:44.761Z,3.01
2022-10-18T16:14:11.125Z,3.47
2022-10-18T16:16:37.485Z,3.42
2022-10-18T16:19:03.838Z,3.51
2022-10-18T16:21:30.196Z,3.46
2022-10-18T16:23:56.546Z,3.26
2022-10-18T16:26:22.982Z,3.27
2022-10-18T16:28:49.404Z,3.53
2022-10-18T16:33:47.067Z,3.63
2022-10-18T16:36:13.427Z,3.87
2022-10-18T16:38:39.783Z,4.26
2022-10-18T16:41:06.137Z,3.86
2022-10-18T16:43:32.505Z,3.53
2022-10-18T16:45:58.865Z,3.77
2022-10-18T16:48:25.231Z,3.66
2022-10-18T16:50:51.583Z,3.99
2022-10-18T16:53:17.943Z,3.82
2022-10-18T16:55:44.301Z,3.91
2022-10-18T16:58:10.699Z,3.91
2022-10-18T17:00:37.099Z,4.31
2022-10-18T17:03:03.465Z,4.06
2022-10-18T17:05:29.813Z,4.48
2022-10-18T17:07:56.182Z,4.35
2022-10-18T17:10:22.553Z,4.24
2022-10-18T17:12:48.887Z,4.55
2022-10-18T17:15:15.222Z,4.31
2022-10-18T17:17:41.583Z,5.17
2022-10-18T17:20:07.968Z,5.06
2022-10-18T17:22:34.318Z,5.45
2022-10-18T17:25:00.675Z,6.14
2022-10-18T17:27:27.094Z,6.43
2022-10-18T17:29:53.439Z,6.38
2022-10-18T17:32:19.811Z,7.22
2022-10-18T17:34:46.192Z,6.42
2022-10-18T17:37:12.541Z,5.82
2022-10-18T17:39:38.921Z,5.85
2022-10-18T17:42:05.284Z,5.96
2022-10-18T17:44:31.653Z,5.58
2022-10-18T17:46:58.011Z,5.75
2022-10-18T17:49:24.370Z,6.59
2022-10-18T17:51:50.768Z,6.52
2022-10-18T17:54:17.150Z,7.84
2022-10-18T17:56:43.538Z,6.80
2022-10-18T17:59:09.910Z,6.29
2022-10-18T18:01:36.297Z,5.80
2022-10-18T18:04:02.682Z,5.94
2022-10-18T18:06:29.019Z,5.96
2022-10-18T18:08:55.373Z,6.24
2022-10-18T18:11:21.772Z,6.42
2022-10-18T18:13:48.131Z,6.99
2022-10-18T18:16:14.485Z,7.30
2022-10-18T18:18:40.859Z,6.48
2022-10-18T18:21:07.234Z,6.75
2022-10-18T18:23:33.593Z,7.32
2022-10-18T18:25:59.967Z,7.70
2022-10-18T18:28:26.335Z,7.78
2022-10-18T18:30:52.712Z,7.88
2022-10-18T18:33:19.077Z,7.94
2022-10-18T18:35:45.444Z,7.71
2022-10-18T18:38:11.936Z,7.94
2022-10-18T18:40:38.315Z,7.85
2022-10-18T18:43:12.550Z,8.38
2022-10-18T18:45:48.922Z,8.10
2022-10-18T18:48:18.993Z,8.24
2022-10-18T18:50:46.333Z,8.26
2022-10-18T18:53:12.697Z,8.54
2022-10-18T18:55:39.075Z,8.96
2022-10-18T18:58:05.430Z,8.41
2022-10-18T19:00:31.797Z,9.43
2022-10-18T19:02:58.162Z,9.29
2022-10-18T19:05:24.564Z,12.05
2022-10-18T19:07:50.948Z,9.59
2022-10-18T19:10:17.367Z,7.91
2022-10-18T19:12:43.730Z,7.49
2022-10-18T19:15:10.089Z,8.20
2022-10-18T19:17:36.496Z,8.21
2022-10-18T19:20:02.867Z,7.96
2022-10-18T19:22:29.234Z,7.80
2022-10-18T19:24:55.614Z,8.20
2022-10-18T19:27:21.989Z,7.80
2022-10-18T19:29:48.333Z,7.52
2022-10-18T19:32:14.742Z,7.49
2022-10-18T19:34:41.101Z,7.65
2022-10-18T19:37:07.467Z,7.53
2022-10-18T19:39:33.813Z,7.48
2022-10-18T19:42:00.174Z,6.90
2022-10-18T19:44:26.562Z,6.76
2022-10-18T19:46:52.973Z,6.61
2022-10-18T19:49:19.330Z,6.54
2022-10-18T19:51:45.722Z,6.92
2022-10-18T19:54:12.114Z,7.25
2022-10-18T19:56:38.488Z,7.14
2022-10-18T19:59:04.857Z,7.38
2022-10-18T20:01:31.276Z,6.67
2022-10-18T20:03:57.699Z,6.60
2022-10-18T20:06:24.060Z,7.26
2022-10-18T20:08:50.418Z,7.55
2022-10-18T20:11:16.790Z,7.12
2022-10-18T20:13:43.164Z,7.38
2022-10-18T20:16:09.520Z,7.04
2022-10-18T20:18:35.886Z,6.89
2022-10-18T20:21:02.234Z,6.93
2022-10-18T20:23:28.593Z,6.69
2022-10-18T20:25:54.959Z,6.99
2022-10-18T20:28:21.314Z,7.17
2022-10-18T20:30:47.676Z,6.66
2022-10-18T20:33:14.020Z,6.50
2022-10-18T20:35:40.453Z,6.17
2022-10-18T20:38:06.824Z,6.23
2022-10-18T20:40:33.180Z,6.56
2022-10-18T20:43:03.661Z,6.68
2022-10-18T20:45:30.403Z,6.68
2022-10-18T20:47:56.755Z,6.77
2022-10-18T20:50:23.101Z,6.62
2022-10-18T20:52:49.475Z,6.45
2022-10-18T20:55:15.819Z,6.04
2022-10-18T20:57:42.679Z,5.86
2022-10-18T21:00:09.215Z,6.22
2022-10-18T21:02:35.605Z,6.53
2022-10-18T21:05:01.957Z,7.11
2022-10-18T21:07:28.319Z,7.01
2022-10-18T21:09:54.659Z,6.94
2022-10-18T21:12:21.029Z,7.14
2022-10-18T21:14:47.400Z,7.31
2022-10-18T21:17:13.777Z,7.10
2022-10-18T21:19:40.165Z,7.33
2022-10-18T21:22:06.524Z,7.25
2022-10-18T21:24:32.881Z,7.55
2022-10-18T21:26:59.290Z,8.27
2022-10-18T21:29:25.672Z,8.14
2022-10-18T21:31:52.046Z,8.75
2022-10-18T21:34:18.413Z,8.55
2022-10-18T21:36:44.766Z,8.88
2022-10-18T21:39:11.169Z,8.65
2022-10-18T21:41:37.585Z,8.22
2022-10-18T21:44:05.700Z,8.88
2022-10-18T21:46:34.693Z,9.01
2022-10-18T21:49:01.054Z,8.82
2022-10-18T21:51:27.418Z,9.20
2022-10-18T21:53:53.798Z,9.76
2022-10-18T21:56:20.185Z,9.74
2022-10-18T21:58:46.533Z,9.03
2022-10-18T22:01:12.968Z,8.14
2022-10-18T22:03:39.368Z,7.75
2022-10-18T22:06:05.741Z,7.36
2022-10-18T22:08:32.116Z,6.92
2022-10-18T22:10:58.623Z,6.78
2022-10-18T22:13:27.312Z,6.82
2022-10-18T22:15:53.659Z,6.41
2022-10-18T22:18:20.033Z,6.21
2022-10-18T22:20:46.381Z,5.82
2022-10-18T22:23:12.743Z,5.22
2022-10-18T22:25:39.101Z,5.58
2022-10-18T22:28:05.474Z,5.55
2022-10-18T22:30:31.813Z,5.62
2022-10-18T22:32:58.159Z,5.85
2022-10-18T22:35:24.534Z,5.95
2022-10-18T22:37:50.890Z,5.84
2022-10-18T22:40:17.271Z,6.29
2022-10-18T22:42:43.639Z,5.98
2022-10-18T22:45:10.037Z,6.32
2022-10-18T22:47:36.816Z,6.35
2022-10-18T22:50:03.413Z,6.12
2022-10-18T22:52:29.949Z,6.13
2022-10-18T22:54:56.436Z,6.31
2022-10-18T22:57:22.799Z,6.04
2022-10-18T22:59:49.152Z,5.93
2022-10-18T23:02:15.528Z,6.15
2022-10-18T23:04:41.901Z,6.34
2022-10-18T23:07:08.264Z,6.15
2022-10-18T23:09:34.699Z,6.07
2022-10-18T23:12:01.126Z,6.21
2022-10-18T23:14:27.485Z,6.09
2022-10-18T23:16:53.858Z,5.79
2022-10-18T23:19:20.224Z,6.04
2022-10-18T23:21:46.577Z,5.95
2022-10-18T23:24:12.947Z,6.06
2022-10-18T23:26:39.302Z,6.19
2022-10-18T23:29:05.746Z,6.35
2022-10-18T23:31:32.148Z,6.18
2022-10-18T23:33:58.506Z,6.31
2022-10-18T23:36:24.844Z,6.51
2022-10-18T23:38:51.210Z,6.20
2022-10-18T23:41:17.585Z,5.94
2022-10-18T23:43:43.947Z,6.11
2022-10-18T23:46:10.326Z,5.91
2022-10-18T23:48:36.679Z,5.92
2022-10-18T23:51:03.052Z,5.58
2022-10-18T23:53:29.414Z,5.71
2022-10-18T23:55:55.800Z,5.94
2022-10-18T23:58:22.141Z,5.82
